sensor_id;sensor_type;location;lat;lon;timestamp;pressure;altitude;pressure_sealevel;temperature;humidity
48800;BME280;34611;47.964;7.982;2023-04-06T00:06:22;96981.81;;;9.46;43.25
48800;BME280;34611;47.964;7.982;2023-04-06T00:13:22;96968.25;;;9.42;43.19
48800;BME280;34611;47.964;7.982;2023-04-06T00:20:23;96959.50;;;9.43;43.33
48800;BME280;34611;47.964;7.982;2023-04-06T00:27:23;96954.47;;;9.42;43.03
48800;BME280;34611;47.964;7.982;2023-04-06T00:34:23;96956.19;;;9.41;43.11
48800;BME280;34611;47.964;7.982;2023-04-06T00:41:24;96947.50;;;9.42;43.12
48800;BME280;34611;47.964;7.982;2023-04-06T00:48:24;96938.88;;;9.42;43.17
48800;BME280;34611;47.964;7.982;2023-04-06T00:55:26;96935.44;;;9.41;42.85
48800;BME280;34611;47.964;7.982;2023-04-06T01:02:26;96931.09;;;9.42;43.04
48800;BME280;34611;47.964;7.982;2023-04-06T01:09:28;96937.22;;;9.41;42.92
48800;BME280;34611;47.964;7.982;2023-04-06T01:16:35;96932.03;;;9.41;42.90
48800;BME280;34611;47.964;7.982;2023-04-06T01:23:48;96921.66;;;9.41;42.80
48800;BME280;34611;47.964;7.982;2023-04-06T01:30:56;96922.47;;;9.41;42.58
48800;BME280;34611;47.964;7.982;2023-04-06T01:38:13;96911.28;;;9.41;42.85
48800;BME280;34611;47.964;7.982;2023-04-06T01:45:14;96901.72;;;9.41;42.69
48800;BME280;34611;47.964;7.982;2023-04-06T01:52:15;96908.69;;;9.41;42.84
48800;BME280;34611;47.964;7.982;2023-04-06T01:59:23;96908.69;;;9.41;42.52
48800;BME280;34611;47.964;7.982;2023-04-06T02:06:23;96905.16;;;9.42;42.55
48800;BME280;34611;47.964;7.982;2023-04-06T02:13:24;96907.06;;;9.40;42.65
48800;BME280;34611;47.964;7.982;2023-04-06T02:20:26;96909.66;;;9.40;42.74
48800;BME280;34611;47.964;7.982;2023-04-06T02:27:27;96901.16;;;9.38;42.57
48800;BME280;34611;47.964;7.982;2023-04-06T02:34:27;96901.97;;;9.38;42.48
48800;BME280;34611;47.964;7.982;2023-04-06T02:41:28;96896.66;;;9.40;42.60
48800;BME280;34611;47.964;7.982;2023-04-06T02:48:30;96895.00;;;9.39;42.67
48800;BME280;34611;47.964;7.982;2023-04-06T02:55:31;96889.00;;;9.38;42.80
48800;BME280;34611;47.964;7.982;2023-04-06T03:02:32;96886.41;;;9.38;42.62
48800;BME280;34611;47.964;7.982;2023-04-06T03:09:40;96883.81;;;9.38;42.75
48800;BME280;34611;47.964;7.982;2023-04-06T03:16:40;96883.22;;;9.35;42.49
48800;BME280;34611;47.964;7.982;2023-04-06T03:23:41;96886.53;;;9.37;42.49
48800;BME280;34611;47.964;7.982;2023-04-06T03:30:42;96883.00;;;9.38;42.67
48800;BME280;34611;47.964;7.982;2023-04-06T03:37:43;96892.53;;;9.37;42.64
48800;BME280;34611;47.964;7.982;2023-04-06T03:44:43;96886.41;;;9.38;42.61
48800;BME280;34611;47.964;7.982;2023-04-06T03:51:44;96892.53;;;9.37;42.49
48800;BME280;34611;47.964;7.982;2023-04-06T03:58:44;96895.25;;;9.36;42.43
48800;BME280;34611;47.964;7.982;2023-04-06T04:05:45;96904.56;;;9.38;42.75
48800;BME280;34611;47.964;7.982;2023-04-06T04:12:46;96908.09;;;9.37;42.65
48800;BME280;34611;47.964;7.982;2023-04-06T04:19:46;96916.00;;;9.36;42.84
48800;BME280;34611;47.964;7.982;2023-04-06T04:26:48;96921.19;;;9.24;42.33
48800;BME280;34611;47.964;7.982;2023-04-06T04:33:52;96919.78;;;9.31;42.23
48800;BME280;34611;47.964;7.982;2023-04-06T04:40:59;96921.44;;;9.32;42.27
48800;BME280;34611;47.964;7.982;2023-04-06T04:48:00;96915.41;;;9.32;42.27
48800;BME280;34611;47.964;7.982;2023-04-06T04:55:06;96920.59;;;9.32;42.54
48800;BME280;34611;47.964;7.982;2023-04-06T05:02:07;96929.09;;;9.34;42.74
48800;BME280;34611;47.964;7.982;2023-04-06T05:09:18;96934.41;;;9.32;42.67
48800;BME280;34611;47.964;7.982;2023-04-06T05:16:18;96934.84;;;9.49;43.46
48800;BME280;34611;47.964;7.982;2023-04-06T05:23:19;96943.47;;;9.49;43.62
48800;BME280;34611;47.964;7.982;2023-04-06T05:30:19;96945.94;;;9.51;44.04
48800;BME280;34611;47.964;7.982;2023-04-06T05:37:22;96938.88;;;9.53;44.36
48800;BME280;34611;47.964;7.982;2023-04-06T05:44:23;96945.56;;;9.56;44.64
48800;BME280;34611;47.964;7.982;2023-04-06T05:51:33;96951.59;;;9.56;44.78
48800;BME280;34611;47.964;7.982;2023-04-06T05:58:34;96951.47;;;9.58;44.93
48800;BME280;34611;47.964;7.982;2023-04-06T06:05:34;96953.97;;;9.59;45.21
48800;BME280;34611;47.964;7.982;2023-04-06T06:12:42;96956.56;;;9.59;45.31
48800;BME280;34611;47.964;7.982;2023-04-06T06:19:42;96957.25;;;9.61;45.19
48800;BME280;34611;47.964;7.982;2023-04-06T06:26:43;96956.31;;;9.62;45.55
48800;BME280;34611;47.964;7.982;2023-04-06T06:33:46;96956.19;;;9.64;45.59
48800;BME280;34611;47.964;7.982;2023-04-06T06:40:50;96954.56;;;9.63;45.61
48800;BME280;34611;47.964;7.982;2023-04-06T06:47:51;96950.19;;;9.63;45.87
48800;BME280;34611;47.964;7.982;2023-04-06T06:54:51;96956.06;;;9.65;45.72
48800;BME280;34611;47.964;7.982;2023-04-06T07:01:53;96954.28;;;9.66;46.02
48800;BME280;34611;47.964;7.982;2023-04-06T07:08:53;96953.38;;;9.67;46.06
48800;BME280;34611;47.964;7.982;2023-04-06T07:15:54;96954.19;;;9.67;45.95
48800;BME280;34611;47.964;7.982;2023-04-06T07:22:55;96955.97;;;9.67;46.25
48800;BME280;34611;47.964;7.982;2023-04-06T07:29:57;96953.22;;;9.68;46.15
48800;BME280;34611;47.964;7.982;2023-04-06T07:36:58;96945.44;;;9.68;46.26
48800;BME280;34611;47.964;7.982;2023-04-06T07:44:01;96954.88;;;9.69;46.49
48800;BME280;34611;47.964;7.982;2023-04-06T07:51:02;96956.53;;;9.70;46.41
48800;BME280;34611;47.964;7.982;2023-04-06T07:58:03;96953.00;;;9.71;46.95
48800;BME280;34611;47.964;7.982;2023-04-06T08:05:04;96953.00;;;9.71;46.51
48800;BME280;34611;47.964;7.982;2023-04-06T08:12:04;96954.63;;;9.72;46.66
48800;BME280;34611;47.964;7.982;2023-04-06T08:19:05;96959.81;;;9.72;46.60
48800;BME280;34611;47.964;7.982;2023-04-06T08:26:07;96958.91;;;9.73;46.71
48800;BME280;34611;47.964;7.982;2023-04-06T08:33:07;96952.03;;;9.72;46.81
48800;BME280;34611;47.964;7.982;2023-04-06T08:40:08;96952.88;;;9.73;46.98
48800;BME280;34611;47.964;7.982;2023-04-06T08:47:08;96946.72;;;9.74;46.87
48800;BME280;34611;47.964;7.982;2023-04-06T08:54:09;96948.41;;;9.75;46.96
48800;BME280;34611;47.964;7.982;2023-04-06T09:01:11;96951.81;;;9.76;47.06
48800;BME280;34611;47.964;7.982;2023-04-06T09:08:11;96947.56;;;9.75;47.16
48800;BME280;34611;47.964;7.982;2023-04-06T09:15:19;96951.81;;;9.76;47.14
48800;BME280;34611;47.964;7.982;2023-04-06T09:22:20;96950.84;;;9.77;47.16
48800;BME280;34611;47.964;7.982;2023-04-06T09:29:24;96953.44;;;9.77;47.07
48800;BME280;34611;47.964;7.982;2023-04-06T09:36:34;96956.91;;;9.77;47.25
48800;BME280;34611;47.964;7.982;2023-04-06T09:43:35;96957.72;;;9.78;47.38
48800;BME280;34611;47.964;7.982;2023-04-06T09:50:35;96952.50;;;9.78;47.19
48800;BME280;34611;47.964;7.982;2023-04-06T09:57:37;96948.97;;;9.79;47.43
48800;BME280;34611;47.964;7.982;2023-04-06T10:11:39;96947.22;;;9.79;47.25
48800;BME280;34611;47.964;7.982;2023-04-06T10:18:40;96941.06;;;9.80;47.46
48800;BME280;34611;47.964;7.982;2023-04-06T10:25:53;96941.06;;;9.80;47.43
48800;BME280;34611;47.964;7.982;2023-04-06T10:32:54;96937.53;;;9.81;47.69
48800;BME280;34611;47.964;7.982;2023-04-06T10:39:55;96942.56;;;9.83;47.68
48800;BME280;34611;47.964;7.982;2023-04-06T10:46:57;96930.56;;;9.82;47.66
48800;BME280;34611;47.964;7.982;2023-04-06T10:54:00;96938.22;;;9.83;47.64
48800;BME280;34611;47.964;7.982;2023-04-06T11:01:01;96926.19;;;9.82;47.88
48800;BME280;34611;47.964;7.982;2023-04-06T11:08:02;96931.25;;;9.84;47.78
48800;BME280;34611;47.964;7.982;2023-04-06T11:15:03;96922.66;;;9.83;47.77
48800;BME280;34611;47.964;7.982;2023-04-06T11:22:07;96915.69;;;9.84;47.92
48800;BME280;34611;47.964;7.982;2023-04-06T11:29:07;96913.91;;;9.84;48.04
48800;BME280;34611;47.964;7.982;2023-04-06T11:36:08;96912.13;;;9.85;48.10
48800;BME280;34611;47.964;7.982;2023-04-06T11:43:10;96894.78;;;9.85;47.82
48800;BME280;34611;47.964;7.982;2023-04-06T11:50:11;96906.94;;;9.85;48.15
48800;BME280;34611;47.964;7.982;2023-04-06T11:57:12;96893.84;;;9.86;48.08
48800;BME280;34611;47.964;7.982;2023-04-06T12:04:12;96893.03;;;9.86;48.02
48800;BME280;34611;47.964;7.982;2023-04-06T12:11:13;96898.22;;;9.86;48.15
48800;BME280;34611;47.964;7.982;2023-04-06T12:18:13;96892.06;;;9.87;48.22
48800;BME280;34611;47.964;7.982;2023-04-06T12:25:13;96894.66;;;9.87;48.14
48800;BME280;34611;47.964;7.982;2023-04-06T12:32:14;96887.69;;;9.87;48.19
48800;BME280;34611;47.964;7.982;2023-04-06T12:39:15;96874.69;;;9.87;48.20
48800;BME280;34611;47.964;7.982;2023-04-06T12:46:16;96875.53;;;9.88;48.35
48800;BME280;34611;47.964;7.982;2023-04-06T12:53:16;96873.75;;;9.88;48.47
48800;BME280;34611;47.964;7.982;2023-04-06T13:00:16;96869.38;;;9.89;48.27
48800;BME280;34611;47.964;7.982;2023-04-06T13:07:17;96877.19;;;9.89;48.35
48800;BME280;34611;47.964;7.982;2023-04-06T13:14:17;96871.16;;;9.88;48.54
48800;BME280;34611;47.964;7.982;2023-04-06T13:21:17;96868.47;;;9.90;48.41
48800;BME280;34611;47.964;7.982;2023-04-06T13:28:19;96870.09;;;9.91;48.45
48800;BME280;34611;47.964;7.982;2023-04-06T13:35:19;96863.25;;;9.90;48.48
48800;BME280;34611;47.964;7.982;2023-04-06T13:42:20;96864.09;;;9.90;48.58
48800;BME280;34611;47.964;7.982;2023-04-06T13:49:20;96857.09;;;9.91;48.54
48800;BME280;34611;47.964;7.982;2023-04-06T13:56:21;96852.88;;;9.90;48.60
48800;BME280;34611;47.964;7.982;2023-04-06T14:03:22;96852.72;;;9.91;48.59
48800;BME280;34611;47.964;7.982;2023-04-06T14:10:22;96850.13;;;9.91;48.77
48800;BME280;34611;47.964;7.982;2023-04-06T14:17:23;96850.13;;;9.91;48.59
48800;BME280;34611;47.964;7.982;2023-04-06T14:24:24;96845.78;;;9.92;48.85
48800;BME280;34611;47.964;7.982;2023-04-06T14:31:25;96844.00;;;9.92;48.82
48800;BME280;34611;47.964;7.982;2023-04-06T14:38:26;96846.59;;;9.92;48.94
48800;BME280;34611;47.964;7.982;2023-04-06T14:45:26;96847.41;;;9.93;48.75
48800;BME280;34611;47.964;7.982;2023-04-06T14:52:26;96847.41;;;9.93;48.91
48800;BME280;34611;47.964;7.982;2023-04-06T14:59:27;96845.63;;;9.93;48.77
48800;BME280;34611;47.964;7.982;2023-04-06T15:06:28;96849.09;;;9.94;48.94
48800;BME280;34611;47.964;7.982;2023-04-06T15:13:28;96840.34;;;9.95;48.99
48800;BME280;34611;47.964;7.982;2023-04-06T15:20:29;96837.84;;;9.93;48.90
48800;BME280;34611;47.964;7.982;2023-04-06T15:27:30;96845.53;;;9.95;48.86
48800;BME280;34611;47.964;7.982;2023-04-06T15:34:30;96841.16;;;9.96;48.84
48800;BME280;34611;47.964;7.982;2023-04-06T15:41:32;96837.63;;;9.97;48.84
48800;BME280;34611;47.964;7.982;2023-04-06T15:48:32;96842.00;;;9.96;49.04
48800;BME280;34611;47.964;7.982;2023-04-06T15:55:33;96843.59;;;10.08;48.78
48800;BME280;34611;47.964;7.982;2023-04-06T16:02:34;96837.50;;;9.98;49.47
48800;BME280;34611;47.964;7.982;2023-04-06T16:09:34;96840.09;;;9.98;49.21
48800;BME280;34611;47.964;7.982;2023-04-06T16:16:34;96851.31;;;9.99;49.19
48800;BME280;34611;47.964;7.982;2023-04-06T16:23:35;96844.09;;;10.02;49.44
48800;BME280;34611;47.964;7.982;2023-04-06T16:30:36;96846.94;;;9.99;49.40
48800;BME280;34611;47.964;7.982;2023-04-06T16:37:37;96854.59;;;10.01;49.51
48800;BME280;34611;47.964;7.982;2023-04-06T16:44:37;96859.91;;;9.99;49.48
48800;BME280;34611;47.964;7.982;2023-04-06T16:51:39;96858.13;;;10.00;49.25
48800;BME280;34611;47.964;7.982;2023-04-06T16:58:39;96867.59;;;10.01;49.19
48800;BME280;34611;47.964;7.982;2023-04-06T17:05:40;96860.59;;;10.01;49.28
48800;BME280;34611;47.964;7.982;2023-04-06T17:12:40;96870.19;;;10.01;49.45
48800;BME280;34611;47.964;7.982;2023-04-06T17:19:40;96866.75;;;10.00;49.25
48800;BME280;34611;47.964;7.982;2023-04-06T17:26:41;96869.38;;;10.00;49.46
48800;BME280;34611;47.964;7.982;2023-04-06T17:33:41;96873.59;;;10.01;49.27
48800;BME280;34611;47.964;7.982;2023-04-06T17:40:41;96868.41;;;10.01;49.44
48800;BME280;34611;47.964;7.982;2023-04-06T17:47:41;96863.22;;;10.01;49.46
48800;BME280;34611;47.964;7.982;2023-04-06T17:54:42;96871.81;;;10.02;49.32
48800;BME280;34611;47.964;7.982;2023-04-06T18:01:43;96871.81;;;10.02;49.46
48800;BME280;34611;47.964;7.982;2023-04-06T18:08:43;96875.38;;;10.01;49.49
48800;BME280;34611;47.964;7.982;2023-04-06T18:15:44;96883.97;;;10.01;49.29
48800;BME280;34611;47.964;7.982;2023-04-06T18:22:45;96877.00;;;10.02;49.34
48800;BME280;34611;47.964;7.982;2023-04-06T18:29:45;96872.66;;;10.02;49.33
48800;BME280;34611;47.964;7.982;2023-04-06T18:36:46;96879.50;;;10.03;49.50
48800;BME280;34611;47.964;7.982;2023-04-06T18:43:47;96874.41;;;10.02;49.39
48800;BME280;34611;47.964;7.982;2023-04-06T18:50:55;96877.84;;;10.02;49.37
48800;BME280;34611;47.964;7.982;2023-04-06T18:57:59;96867.47;;;10.02;49.50
48800;BME280;34611;47.964;7.982;2023-04-06T19:04:59;96867.31;;;10.04;49.65
48800;BME280;34611;47.964;7.982;2023-04-06T19:11:59;96863.91;;;10.03;49.37
48800;BME280;34611;47.964;7.982;2023-04-06T19:19:00;96866.50;;;10.03;49.56
48800;BME280;34611;47.964;7.982;2023-04-06T19:26:00;96873.47;;;10.03;49.55
48800;BME280;34611;47.964;7.982;2023-04-06T19:33:01;96873.38;;;10.04;49.35
48800;BME280;34611;47.964;7.982;2023-04-06T19:40:02;96873.38;;;10.04;49.65
48800;BME280;34611;47.964;7.982;2023-04-06T19:47:06;96871.69;;;10.03;49.63
48800;BME280;34611;47.964;7.982;2023-04-06T19:54:07;96879.50;;;10.03;49.56
48800;BME280;34611;47.964;7.982;2023-04-06T20:01:07;96881.16;;;10.04;49.54
48800;BME280;34611;47.964;7.982;2023-04-06T20:08:07;96882.09;;;10.03;49.56
48800;BME280;34611;47.964;7.982;2023-04-06T20:15:08;96882.78;;;10.05;49.53
48800;BME280;34611;47.964;7.982;2023-04-06T20:22:09;96875.97;;;10.04;49.54
48800;BME280;34611;47.964;7.982;2023-04-06T20:29:09;96869.09;;;10.03;49.64
48800;BME280;34611;47.964;7.982;2023-04-06T20:36:10;96870.75;;;10.04;49.69
48800;BME280;34611;47.964;7.982;2023-04-06T20:43:11;96863.78;;;10.05;49.53
48800;BME280;34611;47.964;7.982;2023-04-06T20:50:12;96857.63;;;10.06;49.45
48800;BME280;34611;47.964;7.982;2023-04-06T20:57:12;96856.00;;;10.05;49.62
48800;BME280;34611;47.964;7.982;2023-04-06T21:04:12;96854.22;;;10.05;49.71
48800;BME280;34611;47.964;7.982;2023-04-06T21:11:13;96855.03;;;10.06;49.98
48800;BME280;34611;47.964;7.982;2023-04-06T21:18:13;96841.22;;;10.05;49.80
48800;BME280;34611;47.964;7.982;2023-04-06T21:25:13;96848.09;;;10.06;49.78
48800;BME280;34611;47.964;7.982;2023-04-06T21:32:14;96842.91;;;10.06;49.59
48800;BME280;34611;47.964;7.982;2023-04-06T21:39:14;96843.72;;;10.07;49.62
48800;BME280;34611;47.964;7.982;2023-04-06T21:46:15;96848.09;;;10.06;49.73
48800;BME280;34611;47.964;7.982;2023-04-06T21:53:15;96847.25;;;10.06;49.73
48800;BME280;34611;47.964;7.982;2023-04-06T22:00:15;96832.50;;;10.06;49.88
48800;BME280;34611;47.964;7.982;2023-04-06T22:07:16;96835.09;;;10.06;49.88
48800;BME280;34611;47.964;7.982;2023-04-06T22:14:17;96830.72;;;10.07;49.84
48800;BME280;34611;47.964;7.982;2023-04-06T22:21:18;96825.53;;;10.07;49.71
48800;BME280;34611;47.964;7.982;2023-04-06T22:28:19;96835.09;;;10.06;49.78
48800;BME280;34611;47.964;7.982;2023-04-06T22:35:19;96823.75;;;10.07;49.86
48800;BME280;34611;47.964;7.982;2023-04-06T22:42:19;96813.34;;;10.07;49.72
48800;BME280;34611;47.964;7.982;2023-04-06T22:49:20;96802.16;;;10.07;49.74
48800;BME280;34611;47.964;7.982;2023-04-06T22:56:20;96805.44;;;10.09;49.95
48800;BME280;34611;47.964;7.982;2023-04-06T23:03:21;96790.81;;;10.08;49.78
48800;BME280;34611;47.964;7.982;2023-04-06T23:10:21;96784.78;;;10.07;49.92
48800;BME280;34611;47.964;7.982;2023-04-06T23:17:21;96780.41;;;10.08;50.04
48800;BME280;34611;47.964;7.982;2023-04-06T23:24:22;96777.00;;;10.07;49.84
48800;BME280;34611;47.964;7.982;2023-04-06T23:31:22;96776.88;;;10.09;49.96
48800;BME280;34611;47.964;7.982;2023-04-06T23:38:23;96776.88;;;10.09;49.87
48800;BME280;34611;47.964;7.982;2023-04-06T23:45:23;96773.47;;;10.08;49.87
48800;BME280;34611;47.964;7.982;2023-04-06T23:52:24;96772.50;;;10.09;50.05
48800;BME280;34611;47.964;7.982;2023-04-06T23:59:24;96767.19;;;10.11;49.91
